To NAV CANADA Home Page Login to a new session Search on AWWS site Disclaimer Vers la page française équivalente Tips FAQ What's new on the site To the Forecasts and Observations / NOTAM section To "File a Flight Plan" website Publications and other links Update of the User's profile FIC Telephone Numbers My Weather Data Folder Route Weather Data Regional Weather Data Local Weather Data To the Forecasts and Observations / NOTAM section
Request Generated 05/19/2019 at 15:26:11 UTC . Weather information available at that time is displayed.

METAR/TAF

If you find any discrepancies between the coded METAR/TAF and the plain language METAR/TAF please use the coded METAR/TAF. LWIS bulletins are not decoded in plain language.

TORONTO/LESTER B. PEARSON INTL/ON    

METAR CYYZ 191500Z 15009G18KT 15SM SCT062 BKN110 BKN240 16/09 A2983 RMK SC3AC3C SLP105 DENSITY ALT 1000FT=
METAR
LOCATION
CYYZ - TORONTO/LESTER B. PEARSON INTL/ON
DATE - TIME
19 MAY 2019 - 1500 UTC
WIND
150 TRUE @ 9  KNOTS
GUSTS
18 KNOTS
VISIBILITY
15 STAT.  MILES
RUNWAY VISUAL RANGE
WEATHER
CLOUDINESS
SCATTERED CLOUDS (3/8 - 4/8) 6200  FT
BROKEN CLOUDS (5/8 - 7/8) 11000  FT
BROKEN CLOUDS (5/8 - 7/8) 24000  FT
TEMP / DEWPOINT
16 C / 9 C
ALTIMETER
29.83 IN HG
RECENT WEATHER
WIND SHEAR

METAR CYYZ 191400Z 14007KT 15SM FEW070 SCT110 15/08 A2985 RMK AC2AC1 SLP110 DEN TY ALT 800FT=
METAR
LOCATION
CYYZ - TORONTO/LESTER B. PEARSON INTL/ON
DATE - TIME
19 MAY 2019 - 1400 UTC
WIND
140 TRUE @ 7  KNOTS
VISIBILITY
15 STAT.  MILES
RUNWAY VISUAL RANGE
WEATHER
CLOUDINESS
FEW CLOUDS (1/8 - 2/8) 7000  FT
SCATTERED CLOUDS (3/8 - 4/8) 11000  FT
TEMP / DEWPOINT
15 C / 8 C
ALTIMETER
29.85 IN HG
RECENT WEATHER
WIND SHEAR

METAR CYYZ 191300Z 14005KT 080V160 15SM FEW080 FEW095 14/06 A2985 RMK AC1AC1 SL 13 DENSITY ALT 700FT=
METAR
LOCATION
CYYZ - TORONTO/LESTER B. PEARSON INTL/ON
DATE - TIME
19 MAY 2019 - 1300 UTC
WIND
140 TRUE @ 5  KNOTS
VARIATION
80 <-> 160  DEG
VISIBILITY
15 STAT.  MILES
RUNWAY VISUAL RANGE
WEATHER
CLOUDINESS
FEW CLOUDS (1/8 - 2/8) 8000  FT
FEW CLOUDS (1/8 - 2/8) 9500  FT
TEMP / DEWPOINT
14 C / 6 C
ALTIMETER
29.85 IN HG
RECENT WEATHER
WIND SHEAR

TAF CYYZ 191439Z 1915/2018 14007G17KT P6SM FEW070 SCT110 TEMPO 1915/1918 P6SM -SHRA VCTS BKN060CB FM192200 18012KT P6SM -SHRA BKN060 TEMPO 1922/2004 5SM -SHRA BR PROB30 1922/2004 VRB20G30KT 11/2SM +TSRA BR BKN020 OVC050CB FM200400 22015G25KT P6SM -SHRA BKN040 FM200900 25012KT P6SM BKN020 BECMG 2010/2012 25015G25KT FM201500 25018G28KT P6SM BKN025 RMK NXT FCST BY 191800Z=
TAF
LOCATION

CYYZ - TORONTO/LESTER B. PEARSON INTL/ON
VALIDITY [UTC]
19 MAY - 1439 to
20 MAY - 1800
 
TIMES
[UTC]
WIND
[DEGREES TRUE]
VISIBILITY
[STAT. MILES]
WEATHER
CLOUDINESS
[FEET AGL]
 
19 MAY - 1500 to
19 MAY - 2200
140 @ 7 KNOTS
GUSTS 17 KNOTS
6+
NIL
7000 FEW
11000 SCATTERED
TEMPORARY CHANGES
19 MAY - 1500 to
19 MAY - 1800
 
6+
LIGHT RAIN SHOWER
SPRAY IN THE VICINITY
6000 BROKEN WITH CUMULONIMBUS
 
19 MAY - 2200 to
20 MAY - 0400
180 @ 12 KNOTS
6+
LIGHT RAIN SHOWER
6000 BROKEN
TEMPORARY CHANGES
19 MAY - 2200 to
20 MAY - 0400
 
5
LIGHT RAIN SHOWER
MIST
 
30% PROBABILITY
19 MAY - 2200 to
20 MAY - 0400
VARIABLE @ 20 KNOTS
GUSTS 30 KNOTS
1 1/2
HEAVY THUNDERSTORM WITH RAIN
MIST
2000 BROKEN
5000 OVERCAST WITH CUMULONIMBUS
 
20 MAY - 0400 to
20 MAY - 0900
220 @ 15 KNOTS
GUSTS 25 KNOTS
6+
LIGHT RAIN SHOWER
4000 BROKEN
 
20 MAY - 0900 to
20 MAY - 1500
250 @ 12 KNOTS
6+
NIL
2000 BROKEN
BECOMING
20 MAY - 1000 to
20 MAY - 1200
250 @ 15 KNOTS
GUSTS 25 KNOTS
 
 
 
 
20 MAY - 1500 to
20 MAY - 1800
250 @ 18 KNOTS
GUSTS 28 KNOTS
6+
NIL
2500 BROKEN
REMARKS
THE NEXT FORECAST WILL BE ISSUED BY 1800 UTC ON DAY 19


Your time UTC time
Weather data provided by Environment Canada and NAV CANADA